sensor_id;sensor_type;location;lat;lon;timestamp;temperature;humidity
3037;DHT22;1528;52.550;13.408;2023-07-13T00:02:29;25.30;9.30
3037;DHT22;1528;52.550;13.408;2023-07-13T00:05:14;25.30;9.40
3037;DHT22;1528;52.550;13.408;2023-07-13T00:08:00;25.30;9.50
3037;DHT22;1528;52.550;13.408;2023-07-13T00:10:45;25.20;9.70
3037;DHT22;1528;52.550;13.408;2023-07-13T00:13:32;25.00;9.80
3037;DHT22;1528;52.550;13.408;2023-07-13T00:16:18;25.00;9.90
3037;DHT22;1528;52.550;13.408;2023-07-13T00:19:04;24.80;9.90
3037;DHT22;1528;52.550;13.408;2023-07-13T00:21:50;24.80;10.10
3037;DHT22;1528;52.550;13.408;2023-07-13T00:24:36;24.70;10.70
3037;DHT22;1528;52.550;13.408;2023-07-13T00:27:26;24.50;10.20
3037;DHT22;1528;52.550;13.408;2023-07-13T00:30:13;24.40;10.40
3037;DHT22;1528;52.550;13.408;2023-07-13T00:32:59;24.40;11.20
3037;DHT22;1528;52.550;13.408;2023-07-13T00:35:45;24.30;10.60
3037;DHT22;1528;52.550;13.408;2023-07-13T00:38:31;24.30;10.80
3037;DHT22;1528;52.550;13.408;2023-07-13T00:41:17;24.20;11.00
3037;DHT22;1528;52.550;13.408;2023-07-13T00:44:03;24.20;11.00
3037;DHT22;1528;52.550;13.408;2023-07-13T00:46:50;24.20;11.00
3037;DHT22;1528;52.550;13.408;2023-07-13T00:49:36;24.10;10.80
3037;DHT22;1528;52.550;13.408;2023-07-13T00:52:22;24.10;11.00
3037;DHT22;1528;52.550;13.408;2023-07-13T00:55:09;24.10;11.20
3037;DHT22;1528;52.550;13.408;2023-07-13T00:57:55;24.00;11.40
3037;DHT22;1528;52.550;13.408;2023-07-13T01:00:42;23.90;11.50
3037;DHT22;1528;52.550;13.408;2023-07-13T01:03:29;23.90;11.50
3037;DHT22;1528;52.550;13.408;2023-07-13T01:06:14;23.90;11.60
3037;DHT22;1528;52.550;13.408;2023-07-13T01:09:02;23.80;11.60
3037;DHT22;1528;52.550;13.408;2023-07-13T01:11:48;23.80;11.70
3037;DHT22;1528;52.550;13.408;2023-07-13T01:14:33;23.80;11.70
3037;DHT22;1528;52.550;13.408;2023-07-13T01:17:19;23.80;11.70
3037;DHT22;1528;52.550;13.408;2023-07-13T01:20:08;23.80;11.70
3037;DHT22;1528;52.550;13.408;2023-07-13T01:22:55;23.90;11.70
3037;DHT22;1528;52.550;13.408;2023-07-13T01:25:40;23.90;11.60
3037;DHT22;1528;52.550;13.408;2023-07-13T01:28:28;23.90;11.60
3037;DHT22;1528;52.550;13.408;2023-07-13T01:31:14;23.90;11.60
3037;DHT22;1528;52.550;13.408;2023-07-13T01:34:00;23.90;11.60
3037;DHT22;1528;52.550;13.408;2023-07-13T01:36:45;23.90;11.60
3037;DHT22;1528;52.550;13.408;2023-07-13T01:39:32;23.90;11.60
3037;DHT22;1528;52.550;13.408;2023-07-13T01:42:18;23.80;11.90
3037;DHT22;1528;52.550;13.408;2023-07-13T01:45:04;23.80;12.70
3037;DHT22;1528;52.550;13.408;2023-07-13T01:47:50;23.70;12.30
3037;DHT22;1528;52.550;13.408;2023-07-13T01:50:35;23.70;13.00
3037;DHT22;1528;52.550;13.408;2023-07-13T01:53:21;23.70;13.10
3037;DHT22;1528;52.550;13.408;2023-07-13T01:56:08;23.70;12.60
3037;DHT22;1528;52.550;13.408;2023-07-13T01:58:53;23.70;12.50
3037;DHT22;1528;52.550;13.408;2023-07-13T02:01:39;23.70;12.60
3037;DHT22;1528;52.550;13.408;2023-07-13T02:04:25;23.80;12.60
3037;DHT22;1528;52.550;13.408;2023-07-13T02:07:11;23.70;12.50
3037;DHT22;1528;52.550;13.408;2023-07-13T02:09:56;23.70;12.50
3037;DHT22;1528;52.550;13.408;2023-07-13T02:12:43;23.80;12.60
3037;DHT22;1528;52.550;13.408;2023-07-13T02:15:29;23.80;12.50
3037;DHT22;1528;52.550;13.408;2023-07-13T02:18:14;23.80;12.50
3037;DHT22;1528;52.550;13.408;2023-07-13T02:21:01;23.70;12.50
3037;DHT22;1528;52.550;13.408;2023-07-13T02:23:46;23.70;12.60
3037;DHT22;1528;52.550;13.408;2023-07-13T02:26:32;23.60;12.60
3037;DHT22;1528;52.550;13.408;2023-07-13T02:29:19;23.60;12.80
3037;DHT22;1528;52.550;13.408;2023-07-13T02:32:05;23.60;13.20
3037;DHT22;1528;52.550;13.408;2023-07-13T02:34:51;23.70;13.00
3037;DHT22;1528;52.550;13.408;2023-07-13T02:37:37;23.70;13.00
3037;DHT22;1528;52.550;13.408;2023-07-13T02:40:23;23.80;12.90
3037;DHT22;1528;52.550;13.408;2023-07-13T02:43:09;23.70;13.30
3037;DHT22;1528;52.550;13.408;2023-07-13T02:45:56;23.70;13.00
3037;DHT22;1528;52.550;13.408;2023-07-13T02:48:44;23.60;12.90
3037;DHT22;1528;52.550;13.408;2023-07-13T02:51:30;23.50;13.20
3037;DHT22;1528;52.550;13.408;2023-07-13T02:54:17;23.50;13.50
3037;DHT22;1528;52.550;13.408;2023-07-13T02:57:03;23.40;13.70
3037;DHT22;1528;52.550;13.408;2023-07-13T02:59:49;23.40;13.60
3037;DHT22;1528;52.550;13.408;2023-07-13T03:02:36;23.40;13.60
3037;DHT22;1528;52.550;13.408;2023-07-13T03:05:21;23.50;13.40
3037;DHT22;1528;52.550;13.408;2023-07-13T03:08:07;23.70;13.20
3037;DHT22;1528;52.550;13.408;2023-07-13T03:10:59;23.80;12.90
3037;DHT22;1528;52.550;13.408;2023-07-13T03:13:44;23.90;12.70
3037;DHT22;1528;52.550;13.408;2023-07-13T03:16:30;23.90;12.70
3037;DHT22;1528;52.550;13.408;2023-07-13T03:19:17;24.00;12.40
3037;DHT22;1528;52.550;13.408;2023-07-13T03:22:03;24.00;12.10
3037;DHT22;1528;52.550;13.408;2023-07-13T03:24:49;24.00;12.10
3037;DHT22;1528;52.550;13.408;2023-07-13T03:27:34;24.10;12.30
3037;DHT22;1528;52.550;13.408;2023-07-13T03:30:20;24.10;12.10
3037;DHT22;1528;52.550;13.408;2023-07-13T03:33:05;24.20;12.00
3037;DHT22;1528;52.550;13.408;2023-07-13T03:35:53;24.30;11.80
3037;DHT22;1528;52.550;13.408;2023-07-13T03:38:38;24.40;11.70
3037;DHT22;1528;52.550;13.408;2023-07-13T03:41:25;24.40;11.60
3037;DHT22;1528;52.550;13.408;2023-07-13T03:44:10;24.40;11.50
3037;DHT22;1528;52.550;13.408;2023-07-13T03:46:56;24.40;11.70
3037;DHT22;1528;52.550;13.408;2023-07-13T03:49:42;24.40;11.70
3037;DHT22;1528;52.550;13.408;2023-07-13T03:52:29;24.40;11.60
3037;DHT22;1528;52.550;13.408;2023-07-13T03:55:14;24.40;11.50
3037;DHT22;1528;52.550;13.408;2023-07-13T03:58:06;24.40;11.50
3037;DHT22;1528;52.550;13.408;2023-07-13T04:01:08;24.50;11.40
3037;DHT22;1528;52.550;13.408;2023-07-13T04:03:54;24.60;11.70
3037;DHT22;1528;52.550;13.408;2023-07-13T04:06:40;24.50;12.30
3037;DHT22;1528;52.550;13.408;2023-07-13T04:09:27;24.60;12.30
3037;DHT22;1528;52.550;13.408;2023-07-13T04:12:12;24.70;12.40
3037;DHT22;1528;52.550;13.408;2023-07-13T04:14:58;24.70;12.10
3037;DHT22;1528;52.550;13.408;2023-07-13T04:17:43;24.70;12.30
3037;DHT22;1528;52.550;13.408;2023-07-13T04:20:29;24.80;12.30
3037;DHT22;1528;52.550;13.408;2023-07-13T04:23:15;24.80;12.40
3037;DHT22;1528;52.550;13.408;2023-07-13T04:26:02;24.80;12.30
3037;DHT22;1528;52.550;13.408;2023-07-13T04:28:47;24.80;12.30
3037;DHT22;1528;52.550;13.408;2023-07-13T04:31:34;24.90;12.90
3037;DHT22;1528;52.550;13.408;2023-07-13T04:34:19;24.90;12.30
3037;DHT22;1528;52.550;13.408;2023-07-13T04:37:06;24.90;12.30
3037;DHT22;1528;52.550;13.408;2023-07-13T04:39:52;24.90;12.20
3037;DHT22;1528;52.550;13.408;2023-07-13T04:42:39;24.90;12.20
3037;DHT22;1528;52.550;13.408;2023-07-13T04:45:25;25.00;12.30
3037;DHT22;1528;52.550;13.408;2023-07-13T04:48:10;25.00;12.30
3037;DHT22;1528;52.550;13.408;2023-07-13T04:50:57;25.00;12.30
3037;DHT22;1528;52.550;13.408;2023-07-13T04:53:43;25.00;12.30
3037;DHT22;1528;52.550;13.408;2023-07-13T04:56:29;25.00;12.30
3037;DHT22;1528;52.550;13.408;2023-07-13T04:59:16;25.00;12.10
3037;DHT22;1528;52.550;13.408;2023-07-13T05:02:01;25.10;12.70
3037;DHT22;1528;52.550;13.408;2023-07-13T05:04:47;25.10;12.20
3037;DHT22;1528;52.550;13.408;2023-07-13T05:07:33;25.10;12.20
3037;DHT22;1528;52.550;13.408;2023-07-13T05:10:19;25.00;12.30
3037;DHT22;1528;52.550;13.408;2023-07-13T05:13:05;25.10;12.30
3037;DHT22;1528;52.550;13.408;2023-07-13T05:15:57;25.10;12.30
3037;DHT22;1528;52.550;13.408;2023-07-13T05:18:43;25.10;12.30
3037;DHT22;1528;52.550;13.408;2023-07-13T05:21:29;25.10;12.30
3037;DHT22;1528;52.550;13.408;2023-07-13T05:24:14;25.10;12.30
3037;DHT22;1528;52.550;13.408;2023-07-13T05:27:00;25.10;12.30
3037;DHT22;1528;52.550;13.408;2023-07-13T05:29:45;25.10;12.40
3037;DHT22;1528;52.550;13.408;2023-07-13T05:32:33;25.10;12.40
3037;DHT22;1528;52.550;13.408;2023-07-13T05:35:18;25.10;12.30
3037;DHT22;1528;52.550;13.408;2023-07-13T05:38:04;25.10;12.30
3037;DHT22;1528;52.550;13.408;2023-07-13T05:40:49;25.10;12.20
3037;DHT22;1528;52.550;13.408;2023-07-13T05:43:37;25.20;12.30
3037;DHT22;1528;52.550;13.408;2023-07-13T05:46:26;25.20;12.30
3037;DHT22;1528;52.550;13.408;2023-07-13T05:49:12;25.10;12.30
3037;DHT22;1528;52.550;13.408;2023-07-13T05:51:58;25.20;12.40
3037;DHT22;1528;52.550;13.408;2023-07-13T05:54:43;25.20;12.30
3037;DHT22;1528;52.550;13.408;2023-07-13T05:57:30;25.20;12.40
3037;DHT22;1528;52.550;13.408;2023-07-13T06:00:16;25.20;12.20
3037;DHT22;1528;52.550;13.408;2023-07-13T06:03:02;25.20;12.20
3037;DHT22;1528;52.550;13.408;2023-07-13T06:05:49;25.20;12.10
3037;DHT22;1528;52.550;13.408;2023-07-13T06:08:35;25.20;12.20
3037;DHT22;1528;52.550;13.408;2023-07-13T06:11:22;25.20;12.10
3037;DHT22;1528;52.550;13.408;2023-07-13T06:14:08;25.20;12.00
3037;DHT22;1528;52.550;13.408;2023-07-13T06:16:54;25.20;12.10
3037;DHT22;1528;52.550;13.408;2023-07-13T06:19:39;25.30;12.10
3037;DHT22;1528;52.550;13.408;2023-07-13T06:22:26;25.30;12.00
3037;DHT22;1528;52.550;13.408;2023-07-13T06:25:11;25.30;11.90
3037;DHT22;1528;52.550;13.408;2023-07-13T06:27:57;25.30;11.90
3037;DHT22;1528;52.550;13.408;2023-07-13T06:30:43;25.30;11.90
3037;DHT22;1528;52.550;13.408;2023-07-13T06:33:28;25.30;11.80
3037;DHT22;1528;52.550;13.408;2023-07-13T06:36:14;25.40;11.90
3037;DHT22;1528;52.550;13.408;2023-07-13T06:39:01;25.30;11.30
3037;DHT22;1528;52.550;13.408;2023-07-13T06:41:46;25.30;11.50
3037;DHT22;1528;52.550;13.408;2023-07-13T06:44:32;25.30;11.40
3037;DHT22;1528;52.550;13.408;2023-07-13T06:47:18;25.30;11.20
3037;DHT22;1528;52.550;13.408;2023-07-13T06:50:04;25.30;11.60
3037;DHT22;1528;52.550;13.408;2023-07-13T06:52:49;25.40;11.30
3037;DHT22;1528;52.550;13.408;2023-07-13T06:55:36;25.50;11.00
3037;DHT22;1528;52.550;13.408;2023-07-13T06:58:22;25.50;10.60
3037;DHT22;1528;52.550;13.408;2023-07-13T07:01:09;25.40;10.50
3037;DHT22;1528;52.550;13.408;2023-07-13T07:03:54;25.50;10.50
3037;DHT22;1528;52.550;13.408;2023-07-13T07:06:40;25.40;10.60
3037;DHT22;1528;52.550;13.408;2023-07-13T07:09:25;25.50;10.20
3037;DHT22;1528;52.550;13.408;2023-07-13T07:12:12;25.40;10.10
3037;DHT22;1528;52.550;13.408;2023-07-13T07:14:58;25.40;10.00
3037;DHT22;1528;52.550;13.408;2023-07-13T07:17:43;25.40;10.00
3037;DHT22;1528;52.550;13.408;2023-07-13T07:20:29;25.40;9.90
3037;DHT22;1528;52.550;13.408;2023-07-13T07:23:15;25.40;9.80
3037;DHT22;1528;52.550;13.408;2023-07-13T07:26:00;25.40;9.60
3037;DHT22;1528;52.550;13.408;2023-07-13T07:28:47;25.40;10.10
3037;DHT22;1528;52.550;13.408;2023-07-13T07:31:32;25.40;9.20
3037;DHT22;1528;52.550;13.408;2023-07-13T07:34:18;25.40;9.20
3037;DHT22;1528;52.550;13.408;2023-07-13T07:37:04;25.40;9.40
3037;DHT22;1528;52.550;13.408;2023-07-13T07:39:50;25.30;9.60
3037;DHT22;1528;52.550;13.408;2023-07-13T07:42:36;25.30;9.50
3037;DHT22;1528;52.550;13.408;2023-07-13T07:45:22;25.30;9.70
3037;DHT22;1528;52.550;13.408;2023-07-13T07:48:08;25.30;9.40
3037;DHT22;1528;52.550;13.408;2023-07-13T07:50:53;25.40;9.20
3037;DHT22;1528;52.550;13.408;2023-07-13T07:53:39;25.30;9.10
3037;DHT22;1528;52.550;13.408;2023-07-13T07:56:25;25.20;9.30
3037;DHT22;1528;52.550;13.408;2023-07-13T07:59:11;25.30;9.50
3037;DHT22;1528;52.550;13.408;2023-07-13T08:01:58;25.30;9.50
3037;DHT22;1528;52.550;13.408;2023-07-13T08:04:43;25.40;9.40
3037;DHT22;1528;52.550;13.408;2023-07-13T08:07:30;25.30;9.40
3037;DHT22;1528;52.550;13.408;2023-07-13T08:10:16;25.30;9.40
3037;DHT22;1528;52.550;13.408;2023-07-13T08:13:02;25.40;9.70
3037;DHT22;1528;52.550;13.408;2023-07-13T08:15:47;25.40;9.60
3037;DHT22;1528;52.550;13.408;2023-07-13T08:18:35;25.40;9.50
3037;DHT22;1528;52.550;13.408;2023-07-13T08:21:20;25.40;9.40
3037;DHT22;1528;52.550;13.408;2023-07-13T08:24:06;25.40;9.60
3037;DHT22;1528;52.550;13.408;2023-07-13T08:26:52;25.50;9.40
3037;DHT22;1528;52.550;13.408;2023-07-13T08:29:37;25.40;9.50
3037;DHT22;1528;52.550;13.408;2023-07-13T08:32:23;25.50;9.30
3037;DHT22;1528;52.550;13.408;2023-07-13T08:35:10;25.60;9.30
3037;DHT22;1528;52.550;13.408;2023-07-13T08:37:57;25.60;9.40
3037;DHT22;1528;52.550;13.408;2023-07-13T08:40:45;25.60;9.60
3037;DHT22;1528;52.550;13.408;2023-07-13T08:43:36;25.70;9.90
3037;DHT22;1528;52.550;13.408;2023-07-13T08:46:25;25.70;9.80
3037;DHT22;1528;52.550;13.408;2023-07-13T08:49:13;25.60;9.70
3037;DHT22;1528;52.550;13.408;2023-07-13T08:52:05;25.50;9.70
3037;DHT22;1528;52.550;13.408;2023-07-13T08:54:54;25.50;9.60
3037;DHT22;1528;52.550;13.408;2023-07-13T08:57:42;25.40;9.70
3037;DHT22;1528;52.550;13.408;2023-07-13T09:00:37;25.50;10.10
3037;DHT22;1528;52.550;13.408;2023-07-13T09:03:28;25.40;10.10
3037;DHT22;1528;52.550;13.408;2023-07-13T09:06:15;25.40;9.80
3037;DHT22;1528;52.550;13.408;2023-07-13T09:09:10;25.50;10.20
3037;DHT22;1528;52.550;13.408;2023-07-13T09:12:05;25.40;9.30
3037;DHT22;1528;52.550;13.408;2023-07-13T09:14:57;25.40;9.70
3037;DHT22;1528;52.550;13.408;2023-07-13T09:17:49;25.40;10.00
3037;DHT22;1528;52.550;13.408;2023-07-13T09:20:39;25.40;9.50
3037;DHT22;1528;52.550;13.408;2023-07-13T09:23:28;25.40;9.80
3037;DHT22;1528;52.550;13.408;2023-07-13T09:26:18;25.40;10.00
3037;DHT22;1528;52.550;13.408;2023-07-13T09:29:12;25.40;10.00
3037;DHT22;1528;52.550;13.408;2023-07-13T09:32:02;25.40;9.80
3037;DHT22;1528;52.550;13.408;2023-07-13T09:34:52;25.40;9.50
3037;DHT22;1528;52.550;13.408;2023-07-13T09:37:38;25.40;9.70
3037;DHT22;1528;52.550;13.408;2023-07-13T09:40:35;25.50;9.60
3037;DHT22;1528;52.550;13.408;2023-07-13T09:43:23;25.50;9.20
3037;DHT22;1528;52.550;13.408;2023-07-13T09:46:20;25.50;9.10
3037;DHT22;1528;52.550;13.408;2023-07-13T09:49:09;25.50;8.30
3037;DHT22;1528;52.550;13.408;2023-07-13T09:52:02;25.50;8.20
3037;DHT22;1528;52.550;13.408;2023-07-13T09:54:50;25.50;8.80
3037;DHT22;1528;52.550;13.408;2023-07-13T09:57:46;25.50;8.60
3037;DHT22;1528;52.550;13.408;2023-07-13T10:00:33;25.50;8.60
3037;DHT22;1528;52.550;13.408;2023-07-13T10:03:22;25.60;8.40
3037;DHT22;1528;52.550;13.408;2023-07-13T10:06:12;25.60;8.40
3037;DHT22;1528;52.550;13.408;2023-07-13T10:08:58;25.50;8.50
3037;DHT22;1528;52.550;13.408;2023-07-13T10:11:44;25.60;8.30
3037;DHT22;1528;52.550;13.408;2023-07-13T10:14:30;25.60;8.60
3037;DHT22;1528;52.550;13.408;2023-07-13T10:17:18;25.60;8.30
3037;DHT22;1528;52.550;13.408;2023-07-13T10:20:06;25.60;7.80
3037;DHT22;1528;52.550;13.408;2023-07-13T10:22:59;25.60;8.30
3037;DHT22;1528;52.550;13.408;2023-07-13T10:25:46;25.60;7.50
3037;DHT22;1528;52.550;13.408;2023-07-13T10:28:36;25.60;7.60
3037;DHT22;1528;52.550;13.408;2023-07-13T10:31:22;25.60;7.70
3037;DHT22;1528;52.550;13.408;2023-07-13T10:34:11;25.70;8.00
3037;DHT22;1528;52.550;13.408;2023-07-13T10:36:57;25.60;7.90
3037;DHT22;1528;52.550;13.408;2023-07-13T10:39:43;25.70;7.70
3037;DHT22;1528;52.550;13.408;2023-07-13T10:42:32;25.70;8.00
3037;DHT22;1528;52.550;13.408;2023-07-13T10:45:21;25.70;8.00
3037;DHT22;1528;52.550;13.408;2023-07-13T10:48:12;25.70;7.80
3037;DHT22;1528;52.550;13.408;2023-07-13T10:50:59;25.70;8.00
3037;DHT22;1528;52.550;13.408;2023-07-13T10:53:46;25.70;8.00
3037;DHT22;1528;52.550;13.408;2023-07-13T10:56:31;25.70;8.00
3037;DHT22;1528;52.550;13.408;2023-07-13T10:59:20;25.70;7.80
3037;DHT22;1528;52.550;13.408;2023-07-13T11:02:15;25.70;7.70
3037;DHT22;1528;52.550;13.408;2023-07-13T11:05:22;25.70;7.60
3037;DHT22;1528;52.550;13.408;2023-07-13T11:08:19;25.70;7.10
3037;DHT22;1528;52.550;13.408;2023-07-13T11:11:32;25.70;6.50
3037;DHT22;1528;52.550;13.408;2023-07-13T11:14:30;25.70;6.10
3037;DHT22;1528;52.550;13.408;2023-07-13T11:17:34;25.60;6.60
3037;DHT22;1528;52.550;13.408;2023-07-13T11:20:23;25.70;6.80
3037;DHT22;1528;52.550;13.408;2023-07-13T11:23:34;25.70;6.90
3037;DHT22;1528;52.550;13.408;2023-07-13T11:26:41;25.70;6.70
3037;DHT22;1528;52.550;13.408;2023-07-13T11:29:36;25.70;6.90
3037;DHT22;1528;52.550;13.408;2023-07-13T11:32:23;25.70;7.00
3037;DHT22;1528;52.550;13.408;2023-07-13T11:35:13;25.70;7.00
3037;DHT22;1528;52.550;13.408;2023-07-13T11:38:03;25.70;7.00
3037;DHT22;1528;52.550;13.408;2023-07-13T11:40:56;25.80;7.00
3037;DHT22;1528;52.550;13.408;2023-07-13T11:43:44;25.80;7.10
3037;DHT22;1528;52.550;13.408;2023-07-13T11:46:29;25.80;7.40
3037;DHT22;1528;52.550;13.408;2023-07-13T11:49:16;25.80;7.70
3037;DHT22;1528;52.550;13.408;2023-07-13T11:52:03;25.80;7.80
3037;DHT22;1528;52.550;13.408;2023-07-13T11:54:50;25.80;8.00
3037;DHT22;1528;52.550;13.408;2023-07-13T11:57:45;25.90;8.20
3037;DHT22;1528;52.550;13.408;2023-07-13T12:00:33;25.90;8.20
3037;DHT22;1528;52.550;13.408;2023-07-13T12:03:21;25.90;8.40
3037;DHT22;1528;52.550;13.408;2023-07-13T12:06:32;26.00;8.10
3037;DHT22;1528;52.550;13.408;2023-07-13T12:09:20;26.00;8.20
3037;DHT22;1528;52.550;13.408;2023-07-13T12:12:11;25.90;8.10
3037;DHT22;1528;52.550;13.408;2023-07-13T12:14:59;25.90;8.30
3037;DHT22;1528;52.550;13.408;2023-07-13T12:17:46;25.90;8.20
3037;DHT22;1528;52.550;13.408;2023-07-13T12:20:37;25.90;8.10
3037;DHT22;1528;52.550;13.408;2023-07-13T12:23:25;25.90;8.40
3037;DHT22;1528;52.550;13.408;2023-07-13T12:26:13;25.90;8.30
3037;DHT22;1528;52.550;13.408;2023-07-13T12:29:00;26.00;8.00
3037;DHT22;1528;52.550;13.408;2023-07-13T12:31:49;26.00;8.00
3037;DHT22;1528;52.550;13.408;2023-07-13T12:34:51;26.00;8.10
3037;DHT22;1528;52.550;13.408;2023-07-13T12:37:37;26.00;8.20
3037;DHT22;1528;52.550;13.408;2023-07-13T12:40:27;26.00;8.20
3037;DHT22;1528;52.550;13.408;2023-07-13T12:43:14;26.00;8.10
3037;DHT22;1528;52.550;13.408;2023-07-13T12:46:04;26.00;7.70
3037;DHT22;1528;52.550;13.408;2023-07-13T12:48:53;26.00;7.80
3037;DHT22;1528;52.550;13.408;2023-07-13T12:51:39;26.00;6.60
3037;DHT22;1528;52.550;13.408;2023-07-13T12:54:28;26.00;6.00
3037;DHT22;1528;52.550;13.408;2023-07-13T12:57:16;26.00;5.50
3037;DHT22;1528;52.550;13.408;2023-07-13T13:00:03;26.00;5.40
3037;DHT22;1528;52.550;13.408;2023-07-13T13:02:50;26.10;3.50
3037;DHT22;1528;52.550;13.408;2023-07-13T13:05:37;26.10;3.20
3037;DHT22;1528;52.550;13.408;2023-07-13T13:08:23;26.10;2.70
3037;DHT22;1528;52.550;13.408;2023-07-13T13:11:09;26.20;2.00
3037;DHT22;1528;52.550;13.408;2023-07-13T13:13:54;26.20;1.60
3037;DHT22;1528;52.550;13.408;2023-07-13T13:16:46;26.30;2.70
3037;DHT22;1528;52.550;13.408;2023-07-13T13:19:33;26.30;1.90
3037;DHT22;1528;52.550;13.408;2023-07-13T13:22:20;26.40;2.20
3037;DHT22;1528;52.550;13.408;2023-07-13T13:25:09;26.40;2.30
3037;DHT22;1528;52.550;13.408;2023-07-13T13:27:55;26.40;2.10
3037;DHT22;1528;52.550;13.408;2023-07-13T13:30:40;26.40;2.00
3037;DHT22;1528;52.550;13.408;2023-07-13T13:33:26;26.40;1.70
3037;DHT22;1528;52.550;13.408;2023-07-13T13:36:17;26.40;1.40
3037;DHT22;1528;52.550;13.408;2023-07-13T13:39:10;26.50;1.40
3037;DHT22;1528;52.550;13.408;2023-07-13T13:42:01;26.50;1.00
3037;DHT22;1528;52.550;13.408;2023-07-13T13:44:46;26.50;1.00
3037;DHT22;1528;52.550;13.408;2023-07-13T13:47:33;26.50;1.00
3037;DHT22;1528;52.550;13.408;2023-07-13T13:50:21;26.50;1.20
3037;DHT22;1528;52.550;13.408;2023-07-13T13:53:10;26.50;1.00
3037;DHT22;1528;52.550;13.408;2023-07-13T13:55:58;26.50;1.00
3037;DHT22;1528;52.550;13.408;2023-07-13T13:58:44;26.50;1.00
3037;DHT22;1528;52.550;13.408;2023-07-13T14:01:31;26.50;1.00
3037;DHT22;1528;52.550;13.408;2023-07-13T14:04:18;26.50;1.10
3037;DHT22;1528;52.550;13.408;2023-07-13T14:07:04;26.50;1.20
3037;DHT22;1528;52.550;13.408;2023-07-13T14:09:49;26.60;1.20
3037;DHT22;1528;52.550;13.408;2023-07-13T14:12:36;26.60;1.30
3037;DHT22;1528;52.550;13.408;2023-07-13T14:15:25;26.50;1.60
3037;DHT22;1528;52.550;13.408;2023-07-13T14:18:11;26.60;1.20
3037;DHT22;1528;52.550;13.408;2023-07-13T14:21:02;26.60;1.10
3037;DHT22;1528;52.550;13.408;2023-07-13T14:23:48;26.60;1.00
3037;DHT22;1528;52.550;13.408;2023-07-13T14:26:37;26.60;1.00
3037;DHT22;1528;52.550;13.408;2023-07-13T14:29:24;26.60;1.00
3037;DHT22;1528;52.550;13.408;2023-07-13T14:32:10;26.60;1.10
3037;DHT22;1528;52.550;13.408;2023-07-13T14:34:56;26.60;1.30
3037;DHT22;1528;52.550;13.408;2023-07-13T14:37:43;26.60;1.20
3037;DHT22;1528;52.550;13.408;2023-07-13T14:40:31;26.60;1.20
3037;DHT22;1528;52.550;13.408;2023-07-13T14:43:18;26.60;1.20
3037;DHT22;1528;52.550;13.408;2023-07-13T14:46:05;26.60;1.20
3037;DHT22;1528;52.550;13.408;2023-07-13T14:48:50;26.60;1.00
3037;DHT22;1528;52.550;13.408;2023-07-13T14:51:36;26.60;1.60
3037;DHT22;1528;52.550;13.408;2023-07-13T14:54:21;26.60;1.20
3037;DHT22;1528;52.550;13.408;2023-07-13T14:57:10;26.60;1.10
3037;DHT22;1528;52.550;13.408;2023-07-13T14:59:56;26.60;1.20
3037;DHT22;1528;52.550;13.408;2023-07-13T15:02:45;26.60;1.00
3037;DHT22;1528;52.550;13.408;2023-07-13T15:05:32;26.60;1.00
3037;DHT22;1528;52.550;13.408;2023-07-13T15:08:18;26.60;1.00
3037;DHT22;1528;52.550;13.408;2023-07-13T15:11:04;26.70;1.00
3037;DHT22;1528;52.550;13.408;2023-07-13T15:13:49;26.70;1.00
3037;DHT22;1528;52.550;13.408;2023-07-13T15:16:36;26.70;1.00
3037;DHT22;1528;52.550;13.408;2023-07-13T15:19:24;26.70;1.00
3037;DHT22;1528;52.550;13.408;2023-07-13T15:22:10;26.70;1.00
3037;DHT22;1528;52.550;13.408;2023-07-13T15:24:56;26.70;1.00
3037;DHT22;1528;52.550;13.408;2023-07-13T15:27:41;26.70;1.00
3037;DHT22;1528;52.550;13.408;2023-07-13T15:30:30;26.70;1.00
3037;DHT22;1528;52.550;13.408;2023-07-13T15:33:27;26.70;1.00
3037;DHT22;1528;52.550;13.408;2023-07-13T15:36:14;26.70;1.00
3037;DHT22;1528;52.550;13.408;2023-07-13T15:39:01;26.70;1.00
3037;DHT22;1528;52.550;13.408;2023-07-13T15:41:47;26.60;1.00
3037;DHT22;1528;52.550;13.408;2023-07-13T15:44:33;26.50;1.00
3037;DHT22;1528;52.550;13.408;2023-07-13T15:47:18;26.50;1.00
3037;DHT22;1528;52.550;13.408;2023-07-13T15:50:05;26.50;1.00
3037;DHT22;1528;52.550;13.408;2023-07-13T15:52:54;26.40;1.00
3037;DHT22;1528;52.550;13.408;2023-07-13T15:55:41;26.40;1.10
3037;DHT22;1528;52.550;13.408;2023-07-13T15:58:26;26.40;1.20
3037;DHT22;1528;52.550;13.408;2023-07-13T16:01:12;26.40;1.00
3037;DHT22;1528;52.550;13.408;2023-07-13T16:03:58;26.40;1.10
3037;DHT22;1528;52.550;13.408;2023-07-13T16:06:44;26.30;1.10
3037;DHT22;1528;52.550;13.408;2023-07-13T16:09:31;26.30;1.30
3037;DHT22;1528;52.550;13.408;2023-07-13T16:12:17;26.30;1.30
3037;DHT22;1528;52.550;13.408;2023-07-13T16:15:04;26.30;1.40
3037;DHT22;1528;52.550;13.408;2023-07-13T16:17:50;26.30;1.50
3037;DHT22;1528;52.550;13.408;2023-07-13T16:20:35;26.30;1.60
3037;DHT22;1528;52.550;13.408;2023-07-13T16:23:21;26.30;1.20
3037;DHT22;1528;52.550;13.408;2023-07-13T16:26:27;26.30;1.50
3037;DHT22;1528;52.550;13.408;2023-07-13T16:29:25;26.40;1.20
3037;DHT22;1528;52.550;13.408;2023-07-13T16:32:13;26.40;1.50
3037;DHT22;1528;52.550;13.408;2023-07-13T16:34:59;26.30;1.20
3037;DHT22;1528;52.550;13.408;2023-07-13T16:37:44;26.30;1.40
3037;DHT22;1528;52.550;13.408;2023-07-13T16:40:32;26.30;1.40
3037;DHT22;1528;52.550;13.408;2023-07-13T16:43:19;26.30;1.60
3037;DHT22;1528;52.550;13.408;2023-07-13T16:46:09;26.30;1.50
3037;DHT22;1528;52.550;13.408;2023-07-13T16:48:55;26.30;1.50
3037;DHT22;1528;52.550;13.408;2023-07-13T16:51:41;26.20;1.30
3037;DHT22;1528;52.550;13.408;2023-07-13T16:54:27;26.20;1.60
3037;DHT22;1528;52.550;13.408;2023-07-13T16:57:18;26.20;1.90
3037;DHT22;1528;52.550;13.408;2023-07-13T17:00:16;26.10;2.00
3037;DHT22;1528;52.550;13.408;2023-07-13T17:03:05;26.10;1.50
3037;DHT22;1528;52.550;13.408;2023-07-13T17:05:51;26.10;1.40
3037;DHT22;1528;52.550;13.408;2023-07-13T17:08:37;26.10;1.90
3037;DHT22;1528;52.550;13.408;2023-07-13T17:11:22;26.10;1.90
3037;DHT22;1528;52.550;13.408;2023-07-13T17:14:14;26.10;2.50
3037;DHT22;1528;52.550;13.408;2023-07-13T17:17:11;26.00;3.50
3037;DHT22;1528;52.550;13.408;2023-07-13T17:20:00;26.00;4.00
3037;DHT22;1528;52.550;13.408;2023-07-13T17:22:47;26.00;4.10
3037;DHT22;1528;52.550;13.408;2023-07-13T17:25:34;26.00;4.70
3037;DHT22;1528;52.550;13.408;2023-07-13T17:28:21;26.00;4.70
3037;DHT22;1528;52.550;13.408;2023-07-13T17:31:09;25.90;5.00
3037;DHT22;1528;52.550;13.408;2023-07-13T17:33:58;25.90;5.50
3037;DHT22;1528;52.550;13.408;2023-07-13T17:36:44;25.90;5.70
3037;DHT22;1528;52.550;13.408;2023-07-13T17:39:30;25.80;6.10
3037;DHT22;1528;52.550;13.408;2023-07-13T17:42:15;25.90;6.20
3037;DHT22;1528;52.550;13.408;2023-07-13T17:45:01;25.90;5.90
3037;DHT22;1528;52.550;13.408;2023-07-13T17:47:47;25.90;5.30
3037;DHT22;1528;52.550;13.408;2023-07-13T17:50:35;25.80;6.10
3037;DHT22;1528;52.550;13.408;2023-07-13T17:53:22;25.80;6.10
3037;DHT22;1528;52.550;13.408;2023-07-13T17:56:09;25.80;6.70
3037;DHT22;1528;52.550;13.408;2023-07-13T17:58:54;25.80;6.30
3037;DHT22;1528;52.550;13.408;2023-07-13T18:01:40;25.80;6.10
3037;DHT22;1528;52.550;13.408;2023-07-13T18:04:25;25.80;6.10
3037;DHT22;1528;52.550;13.408;2023-07-13T18:07:13;25.80;6.10